sensor_id;sensor_type;location;lat;lon;timestamp;P1;durP1;ratioP1;P2;durP2;ratioP2
66384;SDS011;53426;55.872;37.462;2022-11-15T00:01:55;1.20;;;1.10;;
66384;SDS011;53426;55.872;37.462;2022-11-15T00:04:39;4.45;;;1.23;;
66384;SDS011;53426;55.872;37.462;2022-11-15T00:07:23;3.92;;;1.25;;
66384;SDS011;53426;55.872;37.462;2022-11-15T00:10:08;3.17;;;1.13;;
66384;SDS011;53426;55.872;37.462;2022-11-15T00:12:53;3.45;;;1.48;;
66384;SDS011;53426;55.872;37.462;2022-11-15T00:15:38;3.53;;;1.40;;
66384;SDS011;53426;55.872;37.462;2022-11-15T00:18:23;5.97;;;1.25;;
66384;SDS011;53426;55.872;37.462;2022-11-15T00:21:10;2.83;;;1.40;;
66384;SDS011;53426;55.872;37.462;2022-11-15T00:23:55;2.97;;;1.30;;
66384;SDS011;53426;55.872;37.462;2022-11-15T00:26:39;1.35;;;1.10;;
66384;SDS011;53426;55.872;37.462;2022-11-15T00:29:24;1.42;;;1.20;;
66384;SDS011;53426;55.872;37.462;2022-11-15T00:32:11;4.85;;;1.30;;
66384;SDS011;53426;55.872;37.462;2022-11-15T00:34:56;1.80;;;1.10;;
66384;SDS011;53426;55.872;37.462;2022-11-15T00:37:40;2.25;;;1.35;;
66384;SDS011;53426;55.872;37.462;2022-11-15T00:40:24;3.00;;;1.25;;
66384;SDS011;53426;55.872;37.462;2022-11-15T00:43:09;3.15;;;1.55;;
66384;SDS011;53426;55.872;37.462;2022-11-15T00:45:53;4.57;;;1.70;;
66384;SDS011;53426;55.872;37.462;2022-11-15T00:48:38;1.60;;;1.43;;
66384;SDS011;53426;55.872;37.462;2022-11-15T00:51:22;1.83;;;1.45;;
66384;SDS011;53426;55.872;37.462;2022-11-15T00:54:06;3.83;;;1.42;;
66384;SDS011;53426;55.872;37.462;2022-11-15T00:56:50;3.35;;;1.50;;
66384;SDS011;53426;55.872;37.462;2022-11-15T00:59:35;5.25;;;1.85;;
66384;SDS011;53426;55.872;37.462;2022-11-15T01:02:20;3.20;;;1.58;;
66384;SDS011;53426;55.872;37.462;2022-11-15T01:05:04;3.83;;;1.75;;
66384;SDS011;53426;55.872;37.462;2022-11-15T01:07:52;2.58;;;1.70;;
66384;SDS011;53426;55.872;37.462;2022-11-15T01:10:37;1.83;;;1.20;;
66384;SDS011;53426;55.872;37.462;2022-11-15T01:13:22;4.35;;;1.48;;
66384;SDS011;53426;55.872;37.462;2022-11-15T01:16:10;2.97;;;1.40;;
66384;SDS011;53426;55.872;37.462;2022-11-15T01:18:56;4.22;;;1.58;;
66384;SDS011;53426;55.872;37.462;2022-11-15T01:21:41;1.48;;;1.38;;
66384;SDS011;53426;55.872;37.462;2022-11-15T01:24:25;1.63;;;1.50;;
66384;SDS011;53426;55.872;37.462;2022-11-15T01:27:09;4.05;;;1.73;;
66384;SDS011;53426;55.872;37.462;2022-11-15T01:29:54;3.60;;;1.60;;
66384;SDS011;53426;55.872;37.462;2022-11-15T01:32:38;4.30;;;1.90;;
66384;SDS011;53426;55.872;37.462;2022-11-15T01:35:22;2.50;;;1.55;;
66384;SDS011;53426;55.872;37.462;2022-11-15T01:38:07;2.13;;;1.20;;
66384;SDS011;53426;55.872;37.462;2022-11-15T01:40:51;5.15;;;1.75;;
66384;SDS011;53426;55.872;37.462;2022-11-15T01:43:35;5.53;;;1.33;;
66384;SDS011;53426;55.872;37.462;2022-11-15T01:46:22;4.45;;;1.25;;
66384;SDS011;53426;55.872;37.462;2022-11-15T01:49:14;4.65;;;1.55;;
66384;SDS011;53426;55.872;37.462;2022-11-15T01:52:02;1.50;;;1.40;;
66384;SDS011;53426;55.872;37.462;2022-11-15T01:54:49;6.72;;;1.20;;
66384;SDS011;53426;55.872;37.462;2022-11-15T01:57:38;2.00;;;1.08;;
66384;SDS011;53426;55.872;37.462;2022-11-15T02:00:25;3.72;;;1.50;;
66384;SDS011;53426;55.872;37.462;2022-11-15T02:03:11;7.17;;;1.90;;
66384;SDS011;53426;55.872;37.462;2022-11-15T02:05:56;4.35;;;1.52;;
66384;SDS011;53426;55.872;37.462;2022-11-15T02:08:42;12.43;;;1.65;;
66384;SDS011;53426;55.872;37.462;2022-11-15T02:11:27;5.20;;;1.13;;
66384;SDS011;53426;55.872;37.462;2022-11-15T02:14:13;7.75;;;1.23;;
66384;SDS011;53426;55.872;37.462;2022-11-15T02:17:16;6.78;;;1.35;;
66384;SDS011;53426;55.872;37.462;2022-11-15T02:20:20;7.18;;;1.33;;
66384;SDS011;53426;55.872;37.462;2022-11-15T02:36:01;1.60;;;1.10;;
66384;SDS011;53426;55.872;37.462;2022-11-15T02:38:59;1.45;;;1.13;;
66384;SDS011;53426;55.872;37.462;2022-11-15T02:42:01;3.38;;;1.20;;
66384;SDS011;53426;55.872;37.462;2022-11-15T02:44:47;6.88;;;1.40;;
66384;SDS011;53426;55.872;37.462;2022-11-15T02:47:34;7.57;;;1.33;;
66384;SDS011;53426;55.872;37.462;2022-11-15T02:50:25;3.67;;;1.48;;
66384;SDS011;53426;55.872;37.462;2022-11-15T02:53:14;4.97;;;1.95;;
66384;SDS011;53426;55.872;37.462;2022-11-15T02:55:58;3.05;;;1.65;;
66384;SDS011;53426;55.872;37.462;2022-11-15T02:58:54;3.90;;;1.92;;
66384;SDS011;53426;55.872;37.462;2022-11-15T03:11:15;2.92;;;1.50;;
66384;SDS011;53426;55.872;37.462;2022-11-15T03:14:10;9.57;;;1.73;;
66384;SDS011;53426;55.872;37.462;2022-11-15T03:17:12;3.63;;;2.03;;
66384;SDS011;53426;55.872;37.462;2022-11-15T03:20:13;8.02;;;1.70;;
66384;SDS011;53426;55.872;37.462;2022-11-15T03:23:17;2.75;;;1.60;;
66384;SDS011;53426;55.872;37.462;2022-11-15T03:26:02;3.88;;;1.65;;
66384;SDS011;53426;55.872;37.462;2022-11-15T03:29:24;4.05;;;1.90;;
66384;SDS011;53426;55.872;37.462;2022-11-15T03:32:04;2.90;;;1.80;;
66384;SDS011;53426;55.872;37.462;2022-11-15T03:34:57;2.08;;;1.60;;
66384;SDS011;53426;55.872;37.462;2022-11-15T03:37:59;5.97;;;1.95;;
66384;SDS011;53426;55.872;37.462;2022-11-15T03:41:05;6.50;;;1.98;;
66384;SDS011;53426;55.872;37.462;2022-11-15T03:43:57;2.47;;;1.95;;
66384;SDS011;53426;55.872;37.462;2022-11-15T03:46:55;3.75;;;1.90;;
66384;SDS011;53426;55.872;37.462;2022-11-15T03:50:01;5.03;;;1.98;;
66384;SDS011;53426;55.872;37.462;2022-11-15T03:52:48;2.03;;;1.50;;
66384;SDS011;53426;55.872;37.462;2022-11-15T03:55:33;2.17;;;1.85;;
66384;SDS011;53426;55.872;37.462;2022-11-15T03:58:17;5.73;;;1.70;;
66384;SDS011;53426;55.872;37.462;2022-11-15T04:01:02;5.38;;;1.77;;
66384;SDS011;53426;55.872;37.462;2022-11-15T04:03:46;6.57;;;1.55;;
66384;SDS011;53426;55.872;37.462;2022-11-15T04:06:30;7.95;;;1.98;;
66384;SDS011;53426;55.872;37.462;2022-11-15T04:09:15;3.40;;;1.40;;
66384;SDS011;53426;55.872;37.462;2022-11-15T04:11:59;4.65;;;2.00;;
66384;SDS011;53426;55.872;37.462;2022-11-15T04:14:43;19.37;;;2.20;;
66384;SDS011;53426;55.872;37.462;2022-11-15T04:17:51;16.75;;;1.90;;
66384;SDS011;53426;55.872;37.462;2022-11-15T04:20:37;4.05;;;1.90;;
66384;SDS011;53426;55.872;37.462;2022-11-15T04:23:40;7.63;;;1.90;;
66384;SDS011;53426;55.872;37.462;2022-11-15T04:26:39;8.15;;;1.98;;
66384;SDS011;53426;55.872;37.462;2022-11-15T04:29:26;9.27;;;1.95;;
66384;SDS011;53426;55.872;37.462;2022-11-15T04:35:28;11.80;;;2.17;;
66384;SDS011;53426;55.872;37.462;2022-11-15T04:38:13;4.05;;;2.05;;
66384;SDS011;53426;55.872;37.462;2022-11-15T04:41:06;2.40;;;1.48;;
66384;SDS011;53426;55.872;37.462;2022-11-15T04:43:50;6.20;;;1.92;;
66384;SDS011;53426;55.872;37.462;2022-11-15T04:46:34;3.35;;;1.50;;
66384;SDS011;53426;55.872;37.462;2022-11-15T04:49:20;7.85;;;1.80;;
66384;SDS011;53426;55.872;37.462;2022-11-15T04:52:04;5.57;;;1.83;;
66384;SDS011;53426;55.872;37.462;2022-11-15T04:54:49;5.10;;;1.80;;
66384;SDS011;53426;55.872;37.462;2022-11-15T04:57:33;8.70;;;1.92;;
66384;SDS011;53426;55.872;37.462;2022-11-15T05:00:18;10.33;;;2.23;;
66384;SDS011;53426;55.872;37.462;2022-11-15T05:03:02;8.17;;;2.60;;
66384;SDS011;53426;55.872;37.462;2022-11-15T05:06:05;5.85;;;1.80;;
66384;SDS011;53426;55.872;37.462;2022-11-15T05:08:51;7.00;;;2.20;;
66384;SDS011;53426;55.872;37.462;2022-11-15T05:11:36;5.53;;;1.98;;
66384;SDS011;53426;55.872;37.462;2022-11-15T05:14:21;4.57;;;2.17;;
66384;SDS011;53426;55.872;37.462;2022-11-15T05:25:12;9.02;;;2.05;;
66384;SDS011;53426;55.872;37.462;2022-11-15T05:28:00;15.93;;;2.45;;
66384;SDS011;53426;55.872;37.462;2022-11-15T05:30:44;8.53;;;2.20;;
66384;SDS011;53426;55.872;37.462;2022-11-15T05:33:33;7.68;;;1.85;;
66384;SDS011;53426;55.872;37.462;2022-11-15T05:36:24;5.40;;;2.72;;
66384;SDS011;53426;55.872;37.462;2022-11-15T05:43:25;14.85;;;3.38;;
66384;SDS011;53426;55.872;37.462;2022-11-15T05:46:10;14.45;;;2.58;;
66384;SDS011;53426;55.872;37.462;2022-11-15T05:49:51;6.88;;;1.77;;
66384;SDS011;53426;55.872;37.462;2022-11-15T05:52:37;7.57;;;2.10;;
66384;SDS011;53426;55.872;37.462;2022-11-15T05:55:47;7.78;;;1.65;;
66384;SDS011;53426;55.872;37.462;2022-11-15T05:58:32;5.18;;;3.10;;
66384;SDS011;53426;55.872;37.462;2022-11-15T06:01:17;9.43;;;3.17;;
66384;SDS011;53426;55.872;37.462;2022-11-15T06:04:29;8.98;;;3.22;;
66384;SDS011;53426;55.872;37.462;2022-11-15T06:10:03;10.68;;;2.85;;
66384;SDS011;53426;55.872;37.462;2022-11-15T06:12:55;6.00;;;2.55;;
66384;SDS011;53426;55.872;37.462;2022-11-15T06:15:47;6.63;;;2.72;;
66384;SDS011;53426;55.872;37.462;2022-11-15T06:18:31;5.15;;;2.40;;
66384;SDS011;53426;55.872;37.462;2022-11-15T06:21:17;7.63;;;2.17;;
66384;SDS011;53426;55.872;37.462;2022-11-15T06:24:01;8.25;;;2.95;;
66384;SDS011;53426;55.872;37.462;2022-11-15T06:26:46;16.20;;;2.85;;
66384;SDS011;53426;55.872;37.462;2022-11-15T06:29:32;7.30;;;2.35;;
66384;SDS011;53426;55.872;37.462;2022-11-15T06:32:16;9.23;;;2.50;;
66384;SDS011;53426;55.872;37.462;2022-11-15T06:35:00;5.77;;;2.50;;
66384;SDS011;53426;55.872;37.462;2022-11-15T06:37:45;35.38;;;2.78;;
66384;SDS011;53426;55.872;37.462;2022-11-15T06:44:13;4.25;;;2.97;;
66384;SDS011;53426;55.872;37.462;2022-11-15T06:46:57;12.18;;;3.28;;
66384;SDS011;53426;55.872;37.462;2022-11-15T06:49:41;5.75;;;2.80;;
66384;SDS011;53426;55.872;37.462;2022-11-15T06:52:26;5.50;;;2.43;;
66384;SDS011;53426;55.872;37.462;2022-11-15T06:55:16;11.07;;;3.15;;
66384;SDS011;53426;55.872;37.462;2022-11-15T06:58:00;12.83;;;2.30;;
66384;SDS011;53426;55.872;37.462;2022-11-15T07:00:44;2.53;;;2.10;;
66384;SDS011;53426;55.872;37.462;2022-11-15T07:03:41;3.13;;;2.55;;
66384;SDS011;53426;55.872;37.462;2022-11-15T07:06:26;10.40;;;2.45;;
66384;SDS011;53426;55.872;37.462;2022-11-15T07:09:11;12.32;;;2.25;;
66384;SDS011;53426;55.872;37.462;2022-11-15T07:11:56;3.95;;;2.40;;
66384;SDS011;53426;55.872;37.462;2022-11-15T07:14:42;8.13;;;2.97;;
66384;SDS011;53426;55.872;37.462;2022-11-15T07:17:26;16.20;;;2.85;;
66384;SDS011;53426;55.872;37.462;2022-11-15T07:20:11;2.60;;;2.35;;
66384;SDS011;53426;55.872;37.462;2022-11-15T07:23:00;4.82;;;2.50;;
66384;SDS011;53426;55.872;37.462;2022-11-15T07:25:46;7.65;;;2.70;;
66384;SDS011;53426;55.872;37.462;2022-11-15T07:28:30;2.60;;;2.35;;
66384;SDS011;53426;55.872;37.462;2022-11-15T07:31:19;12.90;;;2.90;;
66384;SDS011;53426;55.872;37.462;2022-11-15T07:34:03;12.88;;;2.83;;
66384;SDS011;53426;55.872;37.462;2022-11-15T07:36:47;17.07;;;6.07;;
66384;SDS011;53426;55.872;37.462;2022-11-15T07:39:32;10.20;;;3.53;;
66384;SDS011;53426;55.872;37.462;2022-11-15T07:42:26;14.18;;;3.78;;
66384;SDS011;53426;55.872;37.462;2022-11-15T07:45:29;10.50;;;3.40;;
66384;SDS011;53426;55.872;37.462;2022-11-15T07:48:13;9.63;;;2.95;;
66384;SDS011;53426;55.872;37.462;2022-11-15T07:50:58;3.42;;;2.45;;
66384;SDS011;53426;55.872;37.462;2022-11-15T07:53:59;5.35;;;3.20;;
66384;SDS011;53426;55.872;37.462;2022-11-15T07:56:43;19.13;;;6.47;;
66384;SDS011;53426;55.872;37.462;2022-11-15T07:59:53;10.63;;;2.72;;
66384;SDS011;53426;55.872;37.462;2022-11-15T08:02:40;9.63;;;2.77;;
66384;SDS011;53426;55.872;37.462;2022-11-15T08:05:49;5.00;;;2.78;;
66384;SDS011;53426;55.872;37.462;2022-11-15T08:12:16;6.47;;;3.15;;
66384;SDS011;53426;55.872;37.462;2022-11-15T08:15:00;10.88;;;3.53;;
66384;SDS011;53426;55.872;37.462;2022-11-15T08:18:10;8.98;;;2.42;;
66384;SDS011;53426;55.872;37.462;2022-11-15T08:21:02;9.35;;;2.97;;
66384;SDS011;53426;55.872;37.462;2022-11-15T08:23:46;8.60;;;2.60;;
66384;SDS011;53426;55.872;37.462;2022-11-15T08:26:31;4.65;;;2.75;;
66384;SDS011;53426;55.872;37.462;2022-11-15T08:29:15;3.75;;;2.33;;
66384;SDS011;53426;55.872;37.462;2022-11-15T08:31:59;7.80;;;2.37;;
66384;SDS011;53426;55.872;37.462;2022-11-15T08:34:44;4.88;;;2.58;;
66384;SDS011;53426;55.872;37.462;2022-11-15T08:40:13;14.75;;;2.88;;
66384;SDS011;53426;55.872;37.462;2022-11-15T08:42:59;7.07;;;2.85;;
66384;SDS011;53426;55.872;37.462;2022-11-15T08:45:46;12.43;;;3.38;;
66384;SDS011;53426;55.872;37.462;2022-11-15T08:48:30;10.70;;;2.33;;
66384;SDS011;53426;55.872;37.462;2022-11-15T08:51:14;8.17;;;2.73;;
66384;SDS011;53426;55.872;37.462;2022-11-15T08:53:59;10.98;;;3.63;;
66384;SDS011;53426;55.872;37.462;2022-11-15T08:56:44;14.25;;;3.17;;
66384;SDS011;53426;55.872;37.462;2022-11-15T08:59:32;3.85;;;2.83;;
66384;SDS011;53426;55.872;37.462;2022-11-15T09:02:16;14.00;;;3.55;;
66384;SDS011;53426;55.872;37.462;2022-11-15T09:05:00;10.70;;;3.55;;
66384;SDS011;53426;55.872;37.462;2022-11-15T09:10:28;12.55;;;3.30;;
66384;SDS011;53426;55.872;37.462;2022-11-15T09:13:15;13.77;;;3.33;;
66384;SDS011;53426;55.872;37.462;2022-11-15T09:16:02;14.82;;;4.07;;
66384;SDS011;53426;55.872;37.462;2022-11-15T09:18:47;5.00;;;2.72;;
66384;SDS011;53426;55.872;37.462;2022-11-15T09:21:32;7.60;;;2.75;;
66384;SDS011;53426;55.872;37.462;2022-11-15T09:24:17;9.07;;;2.55;;
66384;SDS011;53426;55.872;37.462;2022-11-15T09:27:01;4.93;;;1.55;;
66384;SDS011;53426;55.872;37.462;2022-11-15T09:29:45;4.00;;;1.70;;
66384;SDS011;53426;55.872;37.462;2022-11-15T09:32:30;13.07;;;2.47;;
66384;SDS011;53426;55.872;37.462;2022-11-15T09:35:15;7.90;;;2.73;;
66384;SDS011;53426;55.872;37.462;2022-11-15T09:38:00;5.47;;;3.05;;
66384;SDS011;53426;55.872;37.462;2022-11-15T09:40:47;3.33;;;2.78;;
66384;SDS011;53426;55.872;37.462;2022-11-15T09:49:46;4.78;;;2.63;;
66384;SDS011;53426;55.872;37.462;2022-11-15T09:52:25;8.88;;;2.53;;
66384;SDS011;53426;55.872;37.462;2022-11-15T09:54:53;6.88;;;3.17;;
66384;SDS011;53426;55.872;37.462;2022-11-15T10:00:19;11.68;;;3.35;;
66384;SDS011;53426;55.872;37.462;2022-11-15T10:06:31;16.10;;;3.53;;
66384;SDS011;53426;55.872;37.462;2022-11-15T10:09:03;7.70;;;3.50;;
66384;SDS011;53426;55.872;37.462;2022-11-15T10:11:40;12.18;;;3.95;;
66384;SDS011;53426;55.872;37.462;2022-11-15T10:14:18;5.63;;;3.15;;
66384;SDS011;53426;55.872;37.462;2022-11-15T10:20:12;7.97;;;3.65;;
66384;SDS011;53426;55.872;37.462;2022-11-15T10:22:50;8.70;;;3.58;;
66384;SDS011;53426;55.872;37.462;2022-11-15T10:25:40;9.15;;;3.67;;
66384;SDS011;53426;55.872;37.462;2022-11-15T10:30:39;17.77;;;4.10;;
66384;SDS011;53426;55.872;37.462;2022-11-15T10:41:42;16.40;;;2.95;;
66384;SDS011;53426;55.872;37.462;2022-11-15T10:46:43;9.75;;;3.40;;
66384;SDS011;53426;55.872;37.462;2022-11-15T10:51:47;8.68;;;3.85;;
66384;SDS011;53426;55.872;37.462;2022-11-15T10:54:17;10.00;;;3.28;;
66384;SDS011;53426;55.872;37.462;2022-11-15T10:56:59;11.65;;;3.22;;
66384;SDS011;53426;55.872;37.462;2022-11-15T10:59:30;13.15;;;3.13;;
66384;SDS011;53426;55.872;37.462;2022-11-15T11:01:58;17.70;;;4.10;;
66384;SDS011;53426;55.872;37.462;2022-11-15T11:04:25;13.48;;;3.50;;
66384;SDS011;53426;55.872;37.462;2022-11-15T11:06:52;10.30;;;4.40;;
66384;SDS011;53426;55.872;37.462;2022-11-15T11:12:13;9.20;;;3.40;;
66384;SDS011;53426;55.872;37.462;2022-11-15T11:14:52;17.33;;;3.75;;
66384;SDS011;53426;55.872;37.462;2022-11-15T11:17:42;11.90;;;4.10;;
66384;SDS011;53426;55.872;37.462;2022-11-15T11:20:25;11.05;;;4.05;;
66384;SDS011;53426;55.872;37.462;2022-11-15T11:27:13;13.60;;;3.85;;
66384;SDS011;53426;55.872;37.462;2022-11-15T11:33:32;9.00;;;3.55;;
66384;SDS011;53426;55.872;37.462;2022-11-15T11:40:49;12.85;;;3.80;;
66384;SDS011;53426;55.872;37.462;2022-11-15T11:47:10;11.10;;;3.97;;
66384;SDS011;53426;55.872;37.462;2022-11-15T11:50:40;9.57;;;3.60;;
66384;SDS011;53426;55.872;37.462;2022-11-15T11:54:12;4.95;;;3.22;;
66384;SDS011;53426;55.872;37.462;2022-11-15T11:57:40;9.15;;;3.75;;
66384;SDS011;53426;55.872;37.462;2022-11-15T12:01:42;13.43;;;3.88;;
66384;SDS011;53426;55.872;37.462;2022-11-15T12:05:46;7.85;;;3.30;;
66384;SDS011;53426;55.872;37.462;2022-11-15T12:09:15;12.70;;;3.75;;
66384;SDS011;53426;55.872;37.462;2022-11-15T12:16:22;10.90;;;3.70;;
66384;SDS011;53426;55.872;37.462;2022-11-15T12:19:49;6.88;;;3.80;;
66384;SDS011;53426;55.872;37.462;2022-11-15T12:23:08;5.50;;;3.60;;
66384;SDS011;53426;55.872;37.462;2022-11-15T12:27:14;12.73;;;4.10;;
66384;SDS011;53426;55.872;37.462;2022-11-15T12:29:58;5.95;;;3.63;;
66384;SDS011;53426;55.872;37.462;2022-11-15T12:33:28;13.00;;;3.88;;
66384;SDS011;53426;55.872;37.462;2022-11-15T12:36:57;7.20;;;3.55;;
66384;SDS011;53426;55.872;37.462;2022-11-15T12:40:05;14.05;;;3.88;;
66384;SDS011;53426;55.872;37.462;2022-11-15T12:47:00;7.13;;;3.97;;
66384;SDS011;53426;55.872;37.462;2022-11-15T13:11:45;11.88;;;4.43;;
66384;SDS011;53426;55.872;37.462;2022-11-15T13:19:53;12.10;;;4.03;;
66384;SDS011;53426;55.872;37.462;2022-11-15T13:22:20;12.73;;;4.28;;
66384;SDS011;53426;55.872;37.462;2022-11-15T13:25:14;11.13;;;4.38;;
66384;SDS011;53426;55.872;37.462;2022-11-15T13:28:01;12.95;;;4.65;;
66384;SDS011;53426;55.872;37.462;2022-11-15T13:30:33;8.35;;;4.82;;
66384;SDS011;53426;55.872;37.462;2022-11-15T13:33:01;9.32;;;4.35;;
66384;SDS011;53426;55.872;37.462;2022-11-15T13:35:45;9.98;;;4.38;;
66384;SDS011;53426;55.872;37.462;2022-11-15T13:38:25;16.02;;;4.82;;
66384;SDS011;53426;55.872;37.462;2022-11-15T13:40:52;17.58;;;5.90;;
66384;SDS011;53426;55.872;37.462;2022-11-15T13:48:39;9.13;;;4.78;;
66384;SDS011;53426;55.872;37.462;2022-11-15T13:51:35;17.85;;;5.35;;
66384;SDS011;53426;55.872;37.462;2022-11-15T13:53:58;11.52;;;5.22;;
66384;SDS011;53426;55.872;37.462;2022-11-15T13:56:48;9.57;;;4.72;;
66384;SDS011;53426;55.872;37.462;2022-11-15T14:02:40;13.35;;;4.80;;
66384;SDS011;53426;55.872;37.462;2022-11-15T14:05:16;11.68;;;5.63;;
66384;SDS011;53426;55.872;37.462;2022-11-15T14:07:57;14.70;;;4.93;;
66384;SDS011;53426;55.872;37.462;2022-11-15T14:10:29;15.50;;;5.00;;
66384;SDS011;53426;55.872;37.462;2022-11-15T14:13:03;15.75;;;4.80;;
66384;SDS011;53426;55.872;37.462;2022-11-15T14:18:03;11.95;;;4.72;;
66384;SDS011;53426;55.872;37.462;2022-11-15T14:20:35;7.57;;;5.00;;
66384;SDS011;53426;55.872;37.462;2022-11-15T14:23:25;20.80;;;6.30;;
66384;SDS011;53426;55.872;37.462;2022-11-15T14:25:55;12.98;;;5.13;;
66384;SDS011;53426;55.872;37.462;2022-11-15T14:30:51;6.78;;;4.55;;
66384;SDS011;53426;55.872;37.462;2022-11-15T14:35:51;6.55;;;4.50;;
66384;SDS011;53426;55.872;37.462;2022-11-15T14:38:19;10.95;;;5.20;;
66384;SDS011;53426;55.872;37.462;2022-11-15T14:40:44;18.90;;;5.78;;
66384;SDS011;53426;55.872;37.462;2022-11-15T14:43:14;8.02;;;5.03;;
66384;SDS011;53426;55.872;37.462;2022-11-15T14:49:21;10.60;;;4.22;;
66384;SDS011;53426;55.872;37.462;2022-11-15T14:51:55;8.73;;;4.22;;
66384;SDS011;53426;55.872;37.462;2022-11-15T14:54:20;8.10;;;4.35;;
66384;SDS011;53426;55.872;37.462;2022-11-15T14:56:49;10.02;;;5.50;;
66384;SDS011;53426;55.872;37.462;2022-11-15T14:59:15;10.63;;;4.47;;
66384;SDS011;53426;55.872;37.462;2022-11-15T15:04:58;8.88;;;4.13;;
66384;SDS011;53426;55.872;37.462;2022-11-15T15:07:53;11.07;;;4.50;;
66384;SDS011;53426;55.872;37.462;2022-11-15T15:10:19;9.77;;;4.53;;
66384;SDS011;53426;55.872;37.462;2022-11-15T15:12:45;14.85;;;4.35;;
66384;SDS011;53426;55.872;37.462;2022-11-15T15:15:21;6.10;;;4.20;;
66384;SDS011;53426;55.872;37.462;2022-11-15T15:17:49;8.45;;;4.70;;
66384;SDS011;53426;55.872;37.462;2022-11-15T15:20:15;12.65;;;4.05;;
66384;SDS011;53426;55.872;37.462;2022-11-15T15:22:44;10.90;;;5.50;;
66384;SDS011;53426;55.872;37.462;2022-11-15T15:25:20;10.30;;;5.32;;
66384;SDS011;53426;55.872;37.462;2022-11-15T15:27:52;9.98;;;4.72;;
66384;SDS011;53426;55.872;37.462;2022-11-15T15:30:19;14.75;;;5.35;;
66384;SDS011;53426;55.872;37.462;2022-11-15T15:37:11;7.65;;;4.85;;
66384;SDS011;53426;55.872;37.462;2022-11-15T15:39:52;8.93;;;5.60;;
66384;SDS011;53426;55.872;37.462;2022-11-15T15:42:22;11.88;;;5.22;;
66384;SDS011;53426;55.872;37.462;2022-11-15T15:44:49;8.27;;;4.95;;
66384;SDS011;53426;55.872;37.462;2022-11-15T15:47:16;8.73;;;5.30;;
66384;SDS011;53426;55.872;37.462;2022-11-15T15:49:45;15.60;;;5.70;;
66384;SDS011;53426;55.872;37.462;2022-11-15T15:52:15;12.38;;;5.40;;
66384;SDS011;53426;55.872;37.462;2022-11-15T15:55:17;11.30;;;7.70;;
66384;SDS011;53426;55.872;37.462;2022-11-15T15:57:48;14.40;;;6.95;;
66384;SDS011;53426;55.872;37.462;2022-11-15T16:00:17;14.20;;;7.88;;
66384;SDS011;53426;55.872;37.462;2022-11-15T16:06:37;11.75;;;6.35;;
66384;SDS011;53426;55.872;37.462;2022-11-15T16:09:05;14.88;;;7.68;;
66384;SDS011;53426;55.872;37.462;2022-11-15T16:11:32;22.88;;;7.45;;
66384;SDS011;53426;55.872;37.462;2022-11-15T16:14:26;18.20;;;7.32;;
66384;SDS011;53426;55.872;37.462;2022-11-15T16:22:50;16.88;;;6.63;;
66384;SDS011;53426;55.872;37.462;2022-11-15T16:25:22;19.95;;;7.78;;
66384;SDS011;53426;55.872;37.462;2022-11-15T16:28:04;12.20;;;6.90;;
66384;SDS011;53426;55.872;37.462;2022-11-15T16:30:31;11.25;;;6.22;;
66384;SDS011;53426;55.872;37.462;2022-11-15T16:43:19;7.25;;;5.70;;
66384;SDS011;53426;55.872;37.462;2022-11-15T16:45:51;13.00;;;5.65;;
66384;SDS011;53426;55.872;37.462;2022-11-15T16:48:23;10.43;;;6.47;;
66384;SDS011;53426;55.872;37.462;2022-11-15T16:50:54;13.43;;;7.60;;
66384;SDS011;53426;55.872;37.462;2022-11-15T16:59:24;12.45;;;7.28;;
66384;SDS011;53426;55.872;37.462;2022-11-15T17:01:53;9.80;;;7.15;;
66384;SDS011;53426;55.872;37.462;2022-11-15T17:04:22;14.85;;;7.32;;
66384;SDS011;53426;55.872;37.462;2022-11-15T17:06:48;16.38;;;7.30;;
66384;SDS011;53426;55.872;37.462;2022-11-15T17:09:18;15.80;;;7.93;;
66384;SDS011;53426;55.872;37.462;2022-11-15T17:11:47;12.35;;;7.53;;
66384;SDS011;53426;55.872;37.462;2022-11-15T17:14:14;13.63;;;8.15;;
66384;SDS011;53426;55.872;37.462;2022-11-15T17:19:37;12.80;;;7.25;;
66384;SDS011;53426;55.872;37.462;2022-11-15T17:22:02;13.30;;;8.35;;
66384;SDS011;53426;55.872;37.462;2022-11-15T17:24:28;12.77;;;8.68;;
66384;SDS011;53426;55.872;37.462;2022-11-15T17:27:03;14.43;;;9.60;;
66384;SDS011;53426;55.872;37.462;2022-11-15T17:29:33;11.35;;;9.60;;
66384;SDS011;53426;55.872;37.462;2022-11-15T17:32:03;11.38;;;8.65;;
66384;SDS011;53426;55.872;37.462;2022-11-15T17:39:10;16.65;;;8.77;;
66384;SDS011;53426;55.872;37.462;2022-11-15T17:41:39;15.88;;;8.40;;
66384;SDS011;53426;55.872;37.462;2022-11-15T17:44:22;11.63;;;8.65;;
66384;SDS011;53426;55.872;37.462;2022-11-15T17:46:48;17.52;;;8.43;;
66384;SDS011;53426;55.872;37.462;2022-11-15T17:49:14;13.68;;;8.43;;
66384;SDS011;53426;55.872;37.462;2022-11-15T17:51:42;14.73;;;9.45;;
66384;SDS011;53426;55.872;37.462;2022-11-15T17:54:09;11.95;;;7.53;;
66384;SDS011;53426;55.872;37.462;2022-11-15T18:05:03;15.00;;;9.48;;
66384;SDS011;53426;55.872;37.462;2022-11-15T18:07:32;15.82;;;9.77;;
66384;SDS011;53426;55.872;37.462;2022-11-15T18:09:59;17.30;;;10.48;;
66384;SDS011;53426;55.872;37.462;2022-11-15T18:12:25;20.15;;;10.75;;
66384;SDS011;53426;55.872;37.462;2022-11-15T18:14:52;21.23;;;10.77;;
66384;SDS011;53426;55.872;37.462;2022-11-15T18:17:17;18.73;;;10.30;;
66384;SDS011;53426;55.872;37.462;2022-11-15T18:19:43;16.83;;;9.90;;
66384;SDS011;53426;55.872;37.462;2022-11-15T18:22:09;14.68;;;9.98;;
66384;SDS011;53426;55.872;37.462;2022-11-15T18:24:39;20.52;;;9.75;;
66384;SDS011;53426;55.872;37.462;2022-11-15T18:27:08;13.43;;;9.63;;
66384;SDS011;53426;55.872;37.462;2022-11-15T18:29:34;12.20;;;9.77;;
66384;SDS011;53426;55.872;37.462;2022-11-15T18:32:02;13.68;;;9.63;;
66384;SDS011;53426;55.872;37.462;2022-11-15T18:34:35;13.57;;;8.82;;
66384;SDS011;53426;55.872;37.462;2022-11-15T18:37:02;15.88;;;9.13;;
66384;SDS011;53426;55.872;37.462;2022-11-15T18:39:29;10.23;;;7.35;;
66384;SDS011;53426;55.872;37.462;2022-11-15T18:41:55;14.75;;;7.32;;
66384;SDS011;53426;55.872;37.462;2022-11-15T18:44:21;14.18;;;7.75;;
66384;SDS011;53426;55.872;37.462;2022-11-15T18:46:47;10.93;;;7.25;;
66384;SDS011;53426;55.872;37.462;2022-11-15T18:49:15;10.15;;;7.40;;
66384;SDS011;53426;55.872;37.462;2022-11-15T18:51:41;12.57;;;7.30;;
66384;SDS011;53426;55.872;37.462;2022-11-15T18:54:08;14.00;;;7.53;;
66384;SDS011;53426;55.872;37.462;2022-11-15T18:56:35;17.65;;;8.48;;
66384;SDS011;53426;55.872;37.462;2022-11-15T18:59:01;13.07;;;8.77;;
66384;SDS011;53426;55.872;37.462;2022-11-15T19:01:29;12.75;;;8.38;;
66384;SDS011;53426;55.872;37.462;2022-11-15T19:03:58;16.42;;;9.15;;
66384;SDS011;53426;55.872;37.462;2022-11-15T19:06:29;12.70;;;8.90;;
66384;SDS011;53426;55.872;37.462;2022-11-15T19:08:56;19.40;;;10.40;;
66384;SDS011;53426;55.872;37.462;2022-11-15T19:11:28;12.52;;;9.15;;
66384;SDS011;53426;55.872;37.462;2022-11-15T19:13:58;15.93;;;10.00;;
66384;SDS011;53426;55.872;37.462;2022-11-15T19:16:29;14.43;;;10.07;;
66384;SDS011;53426;55.872;37.462;2022-11-15T19:22:00;13.32;;;6.43;;
66384;SDS011;53426;55.872;37.462;2022-11-15T19:24:30;16.27;;;8.75;;
66384;SDS011;53426;55.872;37.462;2022-11-15T19:26:58;14.75;;;8.68;;
66384;SDS011;53426;55.872;37.462;2022-11-15T19:29:24;12.45;;;8.73;;
66384;SDS011;53426;55.872;37.462;2022-11-15T19:31:51;15.30;;;9.82;;
66384;SDS011;53426;55.872;37.462;2022-11-15T19:34:18;18.52;;;10.63;;